Caribe Alliance — WDC9383 — position and weather

sailwx.info

Track history (hours):
 
Tides and Currents Weather Stations Pressure Air Temp Water Temp Dewpoint Dewpoint Depression Visibility Wind Speed Wind Dir Waves Ship Positions

Caribe Alliance

Owner: Gulf Caribe Maritime, Redondo Beach, CA. More information available from US FCC via Universal Licensing System and Coast Guard Vessel Documentation Center.

Last reported at 2015-Apr-28 08:30 UTC. Time now 2015-Apr-28 19:47 UTC.
Position N 33°51' W 118°24'.

Length 19 m; draft 3.3 m.

Type: Port tender. MMSI: 367101530.

Date/timePositionNaut miles runAvg speedWind from/ knotsBaromVisibWave heightAir tempDewpointWater temp
2015-Apr-28 08:30N 33°51' W 118°24'5 0.4
2015-Apr-27 20:06N 33°55' W 118°27'0 0.0
2015-Apr-27 16:24N 33°55' W 118°27'0 0.0
2015-Apr-27 15:33N 33°55' W 118°27'0 0.0
2015-Apr-27 11:24N 33°55' W 118°27'0 0.0
2015-Apr-27 10:33N 33°55' W 118°27'0 0.0
2015-Apr-27 09:33N 33°55' W 118°27'0 0.0
2015-Apr-27 08:33N 33°55' W 118°27'0 0.0
2015-Apr-27 07:33N 33°55' W 118°27'0 0.0
2015-Apr-27 06:21N 33°55' W 118°27'0 0.0
2015-Apr-27 05:33N 33°55' W 118°27'0 0.0
2015-Apr-26 23:15N 33°55' W 118°27'0 0.5
2015-Apr-26 22:33N 33°55' W 118°27'0 0.1
2015-Apr-26 21:32N 33°55' W 118°27'0 0.2
2015-Apr-26 20:33N 33°55' W 118°27'0 0.2
2015-Apr-26 19:33N 33°55' W 118°27'4 4.0
2015-Apr-26 18:33N 33°51' W 118°25'  
2015-Apr-23 18:03N 33°51' W 118°24'0 0.6
2015-Apr-23 17:25N 33°51' W 118°24'0 0.0
2015-Apr-22 06:07N 33°50' W 118°24'5 1.0
2015-Apr-22 01:07N 33°55' W 118°27'0 0.0
2015-Apr-21 22:11N 33°55' W 118°27'0 0.0
2015-Apr-21 19:05N 33°55' W 118°27'0 0.0
2015-Apr-21 17:26N 33°55' W 118°27'2 0.2
2015-Apr-21 08:33N 33°53' W 118°26'1 0.1
2015-Apr-20 21:31N 33°54' W 118°27'0 0.0
2015-Apr-20 20:13N 33°54' W 118°27'0 0.0
2015-Apr-20 19:31N 33°54' W 118°27'0 0.0
2015-Apr-20 18:13N 33°54' W 118°27'0 0.0
2015-Apr-20 17:13N 33°54' W 118°27'0 0.4
2015-Apr-20 16:33N 33°54' W 118°27'0 0.0
2015-Apr-20 15:30N 33°54' W 118°27'0 0.0
2015-Apr-20 08:08N 33°55' W 118°27'0 0.0
2015-Apr-18 18:04N 33°55' W 118°27'  
Track history (hours):
 
Tides and Currents Weather Stations Pressure Air Temp Water Temp Dewpoint Dewpoint Depression Visibility Wind Speed Wind Dir Waves Ship Positions

Caribe Alliance

Owner: Gulf Caribe Maritime, Redondo Beach, CA. More information available from US FCC via Universal Licensing System and Coast Guard Vessel Documentation Center.

Last reported at 2015-Apr-28 08:30 UTC. Time now 2015-Apr-28 19:47 UTC.
Position N 33°51' W 118°24'.

Length 19 m; draft 3.3 m.

Type: Port tender. MMSI: 367101530.

Date/timePositionNaut miles runAvg speedWind from/ knotsBaromVisibWave heightAir tempDewpointWater temp
2015-Apr-28 08:30N 33°51' W 118°24'5 0.4
2015-Apr-27 20:06N 33°55' W 118°27'0 0.0
2015-Apr-27 16:24N 33°55' W 118°27'0 0.0
2015-Apr-27 15:33N 33°55' W 118°27'0 0.0
2015-Apr-27 11:24N 33°55' W 118°27'0 0.0
2015-Apr-27 10:33N 33°55' W 118°27'0 0.0
2015-Apr-27 09:33N 33°55' W 118°27'0 0.0
2015-Apr-27 08:33N 33°55' W 118°27'0 0.0
2015-Apr-27 07:33N 33°55' W 118°27'0 0.0
2015-Apr-27 06:21N 33°55' W 118°27'0 0.0
2015-Apr-27 05:33N 33°55' W 118°27'0 0.0
2015-Apr-26 23:15N 33°55' W 118°27'0 0.5
2015-Apr-26 22:33N 33°55' W 118°27'0 0.1
2015-Apr-26 21:32N 33°55' W 118°27'0 0.2
2015-Apr-26 20:33N 33°55' W 118°27'0 0.2
2015-Apr-26 19:33N 33°55' W 118°27'4 4.0
2015-Apr-26 18:33N 33°51' W 118°25'  
2015-Apr-23 18:03N 33°51' W 118°24'0 0.6
2015-Apr-23 17:25N 33°51' W 118°24'0 0.0
2015-Apr-22 06:07N 33°50' W 118°24'5 1.0
2015-Apr-22 01:07N 33°55' W 118°27'0 0.0
2015-Apr-21 22:11N 33°55' W 118°27'0 0.0
2015-Apr-21 19:05N 33°55' W 118°27'0 0.0
2015-Apr-21 17:26N 33°55' W 118°27'2 0.2
2015-Apr-21 08:33N 33°53' W 118°26'1 0.1
2015-Apr-20 21:31N 33°54' W 118°27'0 0.0
2015-Apr-20 20:13N 33°54' W 118°27'0 0.0
2015-Apr-20 19:31N 33°54' W 118°27'0 0.0
2015-Apr-20 18:13N 33°54' W 118°27'0 0.0
2015-Apr-20 17:13N 33°54' W 118°27'0 0.4
2015-Apr-20 16:33N 33°54' W 118°27'0 0.0
2015-Apr-20 15:30N 33°54' W 118°27'0 0.0
2015-Apr-20 08:08N 33°55' W 118°27'0 0.0
2015-Apr-18 18:04N 33°55' W 118°27'  

Dump ship's entire track history